CYGV

Havre St Pierre Airport

Havre St-Pierre, Quebec, Canada
METAR CYGV 211300Z AUTO 11006KT 070V170 9SM CLR 22/16 A3020 RMK SLP228 DENSITY ALT 600FT
Observed Flight Rules
Jul-21 @ 13:00 UTC (53 minutes ago) Visual Flight Rules
Wind Visibility Clouds
110° at 6 knots 9 miles
  • Clear skies
Temperatures Readings
Current 22°C / 72°F
Dewpoint 16°C / 61°F
Humidity 69%
Altimeter 30.2" Hg
Pressure 1022.8 hPa
Elevation 33
METAR CYGV 211300Z AUTO 11006KT 070V170 9SM CLR 22/16 A3020 RMK SLP228 DENSITY ALT 600FT
Observed Flight Rules
Jul-21 @ 13:00 UTC
(53 minutes ago)
VFR
Wind Visibility
110° at 6 knots 9 miles
Clouds
  • Clear skies
Temperature Dewpoint
22°C / 72°F 16°C / 61°F
Humidity Altimeter Pressure
69% 30.2" Hg 1022.8 hPa